createdAt,value
2024-02-29T00:04:07.752Z,9.05
2024-02-29T00:09:09.580Z,10.15
2024-02-29T00:14:11.581Z,8.82
2024-02-29T00:19:13.770Z,9.38
2024-02-29T00:24:16.099Z,9.35
2024-02-29T00:29:18.114Z,10.13
2024-02-29T00:34:20.101Z,11.48
2024-02-29T00:39:22.378Z,10.07
2024-02-29T00:44:24.784Z,9.43
2024-02-29T00:49:26.785Z,9.32
2024-02-29T00:54:28.577Z,9.07
2024-02-29T00:59:30.399Z,9.60
2024-02-29T01:04:32.194Z,9.30
2024-02-29T01:09:33.975Z,8.35
2024-02-29T01:14:35.773Z,9.68
2024-02-29T01:19:37.548Z,8.30
2024-02-29T01:24:39.345Z,9.05
2024-02-29T01:29:41.191Z,8.85
2024-02-29T01:34:42.959Z,7.95
2024-02-29T01:39:44.841Z,9.73
2024-02-29T01:44:57.320Z,9.48
2024-02-29T01:50:04.329Z,10.43
2024-02-29T01:55:07.036Z,7.93
2024-02-29T02:00:10.274Z,9.90
2024-02-29T02:05:12.472Z,9.60
2024-02-29T02:10:14.288Z,9.88
2024-02-29T02:15:16.198Z,9.00
2024-02-29T02:20:18.971Z,9.32
2024-02-29T02:25:20.828Z,8.45
2024-02-29T02:30:22.681Z,9.75
2024-02-29T02:35:24.688Z,8.93
2024-02-29T02:40:26.505Z,8.15
2024-02-29T02:45:29.334Z,8.55
2024-02-29T02:50:31.321Z,8.50
2024-02-29T02:55:33.149Z,9.18
2024-02-29T03:00:35.295Z,7.47
2024-02-29T03:05:37.241Z,9.40
2024-02-29T03:10:38.970Z,8.98
2024-02-29T03:15:41.513Z,8.20
2024-02-29T03:20:43.615Z,10.48
2024-02-29T03:25:45.388Z,10.68
2024-02-29T03:30:47.231Z,10.80
2024-02-29T03:35:49.069Z,11.20
2024-02-29T03:40:52.451Z,10.32
2024-02-29T03:45:54.316Z,8.70
2024-02-29T03:50:56.113Z,8.73
2024-02-29T03:55:57.955Z,8.90
2024-02-29T04:00:59.747Z,9.43
2024-02-29T04:06:01.602Z,9.07
2024-02-29T04:11:03.854Z,8.48
2024-02-29T04:16:06.186Z,8.10
2024-02-29T04:21:07.990Z,9.05
2024-02-29T04:26:09.760Z,8.23
2024-02-29T04:31:11.579Z,8.27
2024-02-29T04:36:13.436Z,8.98
2024-02-29T04:41:15.312Z,9.15
2024-02-29T04:46:17.338Z,7.63
2024-02-29T04:51:19.310Z,8.63
2024-02-29T04:56:21.401Z,9.95
2024-02-29T05:01:23.546Z,9.07
2024-02-29T05:06:25.334Z,9.27
2024-02-29T05:11:27.404Z,8.95
2024-02-29T05:16:29.261Z,10.48
2024-02-29T05:21:31.002Z,9.82
2024-02-29T05:26:33.742Z,8.65
2024-02-29T05:31:35.530Z,9.50
2024-02-29T05:36:37.367Z,9.35
2024-02-29T05:41:39.132Z,9.48
2024-02-29T05:46:40.993Z,8.98
2024-02-29T05:51:42.812Z,8.60
2024-02-29T05:56:44.587Z,9.82
2024-02-29T06:01:46.537Z,11.38
2024-02-29T06:06:49.081Z,12.07
2024-02-29T06:11:51.263Z,8.95
2024-02-29T06:16:53.188Z,11.73
2024-02-29T06:21:55.003Z,11.48
2024-02-29T06:26:56.799Z,13.48
2024-02-29T06:31:58.782Z,13.80
2024-02-29T06:37:00.615Z,15.32
2024-02-29T06:42:02.375Z,15.50
2024-02-29T06:47:04.377Z,16.70
2024-02-29T06:52:06.283Z,15.68
2024-02-29T06:57:08.040Z,14.57
2024-02-29T07:02:10.031Z,13.85
2024-02-29T07:07:12.371Z,15.35
2024-02-29T07:12:14.198Z,13.65
2024-02-29T07:17:17.397Z,21.50
2024-02-29T07:22:19.839Z,19.38
2024-02-29T07:27:21.788Z,13.02
2024-02-29T07:32:23.718Z,13.57
2024-02-29T07:37:25.521Z,11.75
2024-02-29T07:42:27.483Z,11.63
2024-02-29T07:47:29.412Z,16.58
2024-02-29T07:52:31.197Z,11.65
2024-02-29T07:57:33.567Z,11.32
2024-02-29T08:02:35.366Z,11.30
2024-02-29T08:07:40.302Z,11.55
2024-02-29T08:12:46.283Z,11.55
2024-02-29T08:17:48.306Z,12.20
2024-02-29T08:22:55.719Z,10.23
2024-02-29T08:27:57.831Z,9.98
2024-02-29T08:32:59.919Z,10.18
2024-02-29T08:38:01.748Z,11.38
2024-02-29T08:43:04.053Z,11.32
2024-02-29T08:48:06.322Z,12.88
2024-02-29T08:53:08.095Z,12.50
2024-02-29T08:58:11.696Z,12.70
2024-02-29T09:03:16.462Z,13.82
2024-02-29T09:08:21.282Z,12.68
2024-02-29T09:13:30.472Z,13.27
2024-02-29T09:18:37.805Z,12.60
2024-02-29T09:23:39.866Z,11.60
2024-02-29T09:28:41.618Z,12.30
2024-02-29T09:33:43.801Z,12.05
2024-02-29T09:38:46.322Z,13.50
2024-02-29T09:43:48.216Z,12.43
2024-02-29T09:48:51.563Z,13.20
2024-02-29T09:53:55.136Z,13.27
2024-02-29T09:58:58.650Z,12.43
2024-02-29T10:04:02.802Z,12.95
2024-02-29T10:09:05.322Z,12.95
2024-02-29T10:14:19.411Z,13.15
2024-02-29T10:19:23.124Z,13.93
2024-02-29T10:24:25.151Z,14.20
2024-02-29T10:29:27.108Z,14.38
2024-02-29T10:34:28.999Z,14.80
2024-02-29T10:39:34.105Z,15.30
2024-02-29T10:44:36.910Z,14.82
2024-02-29T10:49:54.578Z,14.88
2024-02-29T10:55:19.127Z,15.52
2024-02-29T11:00:21.047Z,15.05
2024-02-29T11:05:22.700Z,15.27
2024-02-29T11:10:24.555Z,14.38
2024-02-29T11:15:27.784Z,15.27
2024-02-29T11:20:31.902Z,15.10
2024-02-29T11:25:34.085Z,15.15
2024-02-29T11:30:36.118Z,15.30
2024-02-29T11:35:37.983Z,15.88
2024-02-29T11:40:40.866Z,14.30
2024-02-29T11:45:42.704Z,13.82
2024-02-29T11:50:44.716Z,14.90
2024-02-29T11:55:47.823Z,15.27
2024-02-29T12:00:51.362Z,15.23
2024-02-29T12:05:53.413Z,14.50
2024-02-29T12:11:00.420Z,14.80
2024-02-29T12:16:02.454Z,14.27
2024-02-29T12:21:08.697Z,12.85
2024-02-29T12:26:15.335Z,13.05
2024-02-29T12:31:18.227Z,14.55
2024-02-29T12:36:25.613Z,13.40
2024-02-29T12:41:27.856Z,12.60
2024-02-29T12:46:29.857Z,12.65
2024-02-29T12:51:31.719Z,12.30
2024-02-29T12:56:33.846Z,13.02
2024-02-29T13:01:38.984Z,12.73
2024-02-29T13:06:41.361Z,12.75
2024-02-29T13:11:43.180Z,13.55
2024-02-29T13:16:45.038Z,13.57
2024-02-29T13:21:47.197Z,13.05
2024-02-29T13:26:49.168Z,13.00
2024-02-29T13:31:51.136Z,13.02
2024-02-29T13:36:53.469Z,12.15
2024-02-29T13:41:55.858Z,11.20
2024-02-29T13:46:57.868Z,11.50
2024-02-29T13:52:01.318Z,10.23
2024-02-29T13:57:03.142Z,10.32
2024-02-29T14:02:05.252Z,9.15
2024-02-29T14:07:09.929Z,9.40
2024-02-29T14:12:12.001Z,9.50
2024-02-29T14:17:14.179Z,9.15
2024-02-29T14:22:16.492Z,9.98
2024-02-29T14:27:20.044Z,10.52
2024-02-29T14:32:21.790Z,10.73
2024-02-29T14:37:23.928Z,12.05
2024-02-29T14:42:25.994Z,11.90
2024-02-29T14:47:29.547Z,11.23
2024-02-29T14:52:31.669Z,11.80
2024-02-29T14:57:33.595Z,10.68
2024-02-29T15:02:35.397Z,11.15
2024-02-29T15:07:37.747Z,11.07
2024-02-29T15:12:41.780Z,10.07
2024-02-29T15:17:44.083Z,10.50
2024-02-29T15:22:46.309Z,10.70
2024-02-29T15:27:54.760Z,11.68
2024-02-29T15:32:56.729Z,11.48
2024-02-29T15:37:58.955Z,11.15
2024-02-29T15:43:00.788Z,10.15
2024-02-29T15:48:02.699Z,10.23
2024-02-29T15:53:04.616Z,10.40
2024-02-29T15:58:06.461Z,11.45
2024-02-29T16:03:08.234Z,11.02
2024-02-29T16:08:10.045Z,11.98
2024-02-29T16:13:12.157Z,11.55
2024-02-29T16:18:14.013Z,12.57
2024-02-29T16:23:15.861Z,12.43
2024-02-29T16:28:19.165Z,12.13
2024-02-29T16:33:20.974Z,12.38
2024-02-29T16:38:22.775Z,11.95
2024-02-29T16:43:25.173Z,12.45
2024-02-29T16:48:28.328Z,12.32
2024-02-29T16:53:30.088Z,12.45
2024-02-29T16:58:32.010Z,11.40
2024-02-29T17:03:33.797Z,11.13
2024-02-29T17:08:36.117Z,12.18
2024-02-29T17:13:37.908Z,11.35
2024-02-29T17:18:39.911Z,10.32
2024-02-29T17:23:41.982Z,11.45
2024-02-29T17:28:44.095Z,10.40
2024-02-29T17:33:46.158Z,11.32
2024-02-29T17:38:47.940Z,11.73
2024-02-29T17:43:49.980Z,10.23
2024-02-29T17:48:51.783Z,10.30
2024-02-29T17:53:53.700Z,11.13
2024-02-29T17:58:55.507Z,11.18
2024-02-29T18:03:57.865Z,9.82
2024-02-29T18:08:59.631Z,12.07
2024-02-29T18:14:01.570Z,11.32
2024-02-29T18:19:03.342Z,11.65
2024-02-29T18:24:05.434Z,10.23
2024-02-29T18:29:07.234Z,10.90
2024-02-29T18:34:09.657Z,12.23
2024-02-29T18:39:15.070Z,12.82
2024-02-29T18:44:17.251Z,12.88
2024-02-29T18:49:20.967Z,13.15
2024-02-29T18:54:22.809Z,12.50
2024-02-29T18:59:24.647Z,13.15
2024-02-29T19:04:26.457Z,13.15
2024-02-29T19:09:28.330Z,12.60
2024-02-29T19:14:30.596Z,12.35
2024-02-29T19:19:32.376Z,12.40
2024-02-29T19:24:34.170Z,16.75
2024-02-29T19:29:36.843Z,15.82
2024-02-29T19:34:38.589Z,15.05
2024-02-29T19:39:40.628Z,13.32
2024-02-29T19:44:42.357Z,13.00
2024-02-29T19:49:44.088Z,15.23
2024-02-29T19:54:45.872Z,14.85
2024-02-29T19:59:47.830Z,14.65
2024-02-29T20:04:52.435Z,15.77
2024-02-29T20:09:55.523Z,15.23
2024-02-29T20:14:57.489Z,15.02
2024-02-29T20:19:59.234Z,12.40
2024-02-29T20:25:00.989Z,12.40
2024-02-29T20:30:02.926Z,20.02
2024-02-29T20:35:05.028Z,17.33
2024-02-29T20:40:08.106Z,16.25
2024-02-29T20:45:12.925Z,14.30
2024-02-29T20:50:16.147Z,13.27
2024-02-29T20:55:17.917Z,12.75
2024-02-29T21:00:20.045Z,12.30
2024-02-29T21:05:21.847Z,12.32
2024-02-29T21:10:23.853Z,16.63
2024-02-29T21:15:25.652Z,18.60
2024-02-29T21:20:27.566Z,20.80
2024-02-29T21:25:30.318Z,15.95
2024-02-29T21:30:32.830Z,15.68
2024-02-29T21:35:34.689Z,16.77
2024-02-29T21:40:36.472Z,15.85
2024-02-29T21:45:38.206Z,18.75
2024-02-29T21:50:41.808Z,15.35
2024-02-29T21:55:43.570Z,15.40
2024-02-29T22:00:45.363Z,14.27
2024-02-29T22:05:47.186Z,17.98
2024-02-29T22:10:49.537Z,15.68
2024-02-29T22:15:51.319Z,15.90
2024-02-29T22:20:53.143Z,16.40
2024-02-29T22:25:55.686Z,15.35
2024-02-29T22:30:57.460Z,16.80
2024-02-29T22:35:59.296Z,13.50
2024-02-29T22:41:01.090Z,16.60
2024-02-29T22:46:02.979Z,15.93
2024-02-29T22:51:05.213Z,15.10
2024-02-29T22:56:07.517Z,14.95
2024-02-29T23:01:11.227Z,16.48
2024-02-29T23:06:16.325Z,13.57
2024-02-29T23:11:18.140Z,16.15
2024-02-29T23:16:20.119Z,14.35
2024-02-29T23:21:22.074Z,14.55
2024-02-29T23:26:23.821Z,14.05
2024-02-29T23:31:25.615Z,13.13
2024-02-29T23:36:27.512Z,12.63
2024-02-29T23:41:29.250Z,16.00
2024-02-29T23:46:31.092Z,15.80
2024-02-29T23:51:33.091Z,12.55
2024-02-29T23:56:34.849Z,13.13
